Station: High Range (Wanganderry)  

  Atmospheric Gas Attenuation - ITU Rec 676-11   ----------------- dB/100km -----------------
Date Time Temp RH % AH g/m3 Dew Point Wind Direction Speed kph Gust kph Barometer mB Rainfall Since 9am 24GHz 47GHz 76GHz 122GHz 134GHz 241GHz
08/05 12:30 11.4 63 6.47 4.6 37 48 1016.9 0 15.1 23.3 32.7 85.4 73.8 251.9
08/05 12:20 10.8 63 6.23 4 44 56 1016.8 0 14.7 23.1 32.0 83.6 71.3 243.2
08/05 12:10 11 63 6.31 4.2 32 43 1017.1 0 14.8 23.2 32.2 84.2 72.2 246.2
08/05 12:00 11.4 62 6.36 4.4 37 59 1017.2 0 14.9 23.2 32.3 84.3 72.4 247.2
08/05 11:50 10.6 63 6.15 4 35 46 1017.1 0 14.5 23.0 31.8 83.0 70.5 240.3
08/05 11:40 10.6 63 6.15 4 28 37 1017.2 0 14.5 23.0 31.8 83.0 70.5 240.3
08/05 11:30 10.3 65 6.23 4 37 65 1017.2 0 14.7 23.2 32.2 84.1 71.8 244.8
08/05 11:20 9.8 66 6.13 3.7 33 41 1017.3 0 14.5 23.2 32.0 83.6 71.0 241.9
08/05 11:10 9.4 67 6.06 3.6 39 56 1017.4 0 14.3 23.2 31.9 83.3 70.5 240.0
08/05 11:00 9.4 67 6.06 3.6 43 72 1017.7 0 14.3 23.2 31.9 83.4 70.5 240.1
08/05 10:50 9.6 66 6.05 3.5 35 48 1017.4 0 14.3 23.1 31.8 83.0 70.2 238.9
08/05 10:40 9.1 68 6.04 3.5 43 54 1017.3 0 14.3 23.3 32.0 83.4 70.5 240.0
08/05 10:30 9 67 5.91 3.2 44 69 1017.3 0 14.0 23.1 31.5 82.2 68.9 234.5
08/05 10:20 9.6 68 6.23 4 37 56 1017 0 14.7 23.4 32.5 84.9 72.4 246.9
08/05 10:10 8.8 69 6.01 3.4 41 48 1017 0 14.3 23.3 32.0 83.4 70.4 239.5
08/05 10:00 8.7 70 6.06 3.5 46 74 1016.8 0 14.4 23.4 32.2 84.0 71.1 242.0
08/05 09:50 8.2 70 5.86 3 46 54 1016.5 0 14.0 23.2 31.6 82.4 68.9 234.4
08/05 09:40 8 72 5.95 3.2 46 61 1016.5 0 14.2 23.4 32.0 83.6 70.3 239.1
08/05 09:30 7.9 73 6 3.4 48 70 1016.6 0 14.3 23.5 32.3 84.2 71.0 241.7
08/05 09:20 7.4 73 5.81 3 59 74 1016.5 0 13.9 23.3 31.7 82.8 69.0 234.5
08/05 09:10 7.3 73 5.77 2.8 59 70 1016.5 0 13.8 23.3 31.6 82.4 68.6 233.0
08/05 09:00 7.3 74 5.85 3 48 65 1016.6 0 14.0 23.4 31.9 83.3 69.6 236.7
08/05 08:50 6.9 74 5.7 2.7 57 70 1016.7 0 13.7 23.3 31.5 82.1 68.0 231.0
08/05 08:40 6.8 77 5.89 3 46 57 1016.7 0 14.1 23.6 32.3 84.3 70.6 240.0
08/05 08:30 6.6 77 5.82 2.9 48 80 1016.9 0 13.9 23.5 32.1 83.7 69.9 237.4
08/05 08:20 6.3 76 5.63 2.5 44 52 1016.7 0 13.5 23.3 31.5 82.0 67.6 229.6
08/05 08:10 6.3 78 5.78 2.7 35 48 1016.9 0 13.9 23.6 32.1 83.6 69.6 236.5
08/05 08:00 6 79 5.74 2.6 41 54 1016.9 0 13.8 23.6 32.0 83.5 69.3 235.6
08/05 07:50 5.6 81 5.73 2.6 43 52 1016.7 0 13.8 23.7 32.1 83.8 69.6 236.2
08/05 07:40 5.4 81 5.66 2.5 35 50 1016.9 0 13.6 23.6 31.9 83.3 68.8 233.6
08/05 07:30 5.2 82 5.65 2.4 44 59 1016.6 0 13.6 23.6 32.0 83.4 68.8 233.7
08/05 07:20 5.1 81 5.54 2.2 48 59 1016.5 0 13.4 23.5 31.6 82.3 67.5 228.9
08/05 07:10 4.9 82 5.54 2.1 46 50 1016.2 0 13.4 23.5 31.6 82.5 67.6 229.4
08/05 07:00 4.9 82 5.54 2.1 52 67 1016.1 0 13.4 23.5 31.6 82.5 67.6 229.4
08/05 06:50 4.7 83 5.53 2 46 56 1016 0 13.4 23.5 31.7 82.6 67.7 229.5
08/05 06:40 4.6 84 5.56 2.1 43 52 1016.2 0 13.4 23.6 31.8 83.0 68.2 231.2
08/05 06:30 4.5 84 5.53 2 43 54 1016.2 0 13.4 23.6 31.7 82.8 67.8 230.1
08/05 06:20 4.4 84 5.49 1.9 39 46 1016.2 0 13.3 23.6 31.6 82.5 67.4 228.5
08/05 06:10 4.4 82 5.36 1.7 41 48 1016.2 0 13.0 23.4 31.1 81.1 65.7 222.5
08/05 06:00 4.5 83 5.46 1.9 46 65 1016.2 0 13.2 23.5 31.5 82.1 66.9 226.8
08/05 05:50 4.2 82 5.29 1.5 41 50 1016.5 0 12.9 23.3 30.9 80.6 64.9 219.8
08/05 05:40 4.1 84 5.38 1.6 39 48 1016.3 0 13.1 23.5 31.3 81.6 66.2 224.3
08/05 05:30 4.1 83 5.32 1.5 39 63 1016.5 0 13.0 23.4 31.1 81.0 65.4 221.5
08/05 05:20 4.2 82 5.29 1.5 37 43 1016.5 0 12.9 23.3 30.9 80.6 64.9 219.8
08/05 05:10 4.3 82 5.32 1.6 50 59 1016.2 0 12.9 23.3 31.0 80.8 65.2 220.9
08/05 05:00 4.2 83 5.35 1.6 44 61 1016 0 13.0 23.4 31.1 81.2 65.7 222.5
08/05 04:50 4.2 82 5.29 1.4 44 57 1016.1 0 12.9 23.3 30.9 80.5 64.9 219.8
08/05 04:40 4.1 81 5.19 1.1 41 50 1016.3 0 12.7 23.2 30.5 79.6 63.7 215.4
08/05 04:30 4.2 81 5.22 1.2 41 63 1016.3 0 12.7 23.2 30.6 79.8 64.0 216.6
08/05 04:20 4.1 80 5.12 0.9 35 46 1016.6 0 12.5 23.1 30.3 78.9 62.8 212.3
08/05 04:10 4.2 79 5.09 0.9 39 50 1016.6 0 12.5 23.0 30.1 78.4 62.3 210.6
08/05 04:00 4.1 79 5.06 0.8 39 52 1016.5 0 12.4 23.0 30.0 78.2 62.0 209.5
08/05 03:50 4.2 78 5.03 0.7 41 44 1016.3 0 12.3 22.9 29.9 77.8 61.5 207.8
08/05 03:40 4.2 78 5.03 0.7 46 54 1016.3 0 12.3 22.9 29.9 77.8 61.5 207.8
08/05 03:30 4.2 78 5.03 0.7 33 54 1016.5 0 12.3 22.9 29.9 77.8 61.5 207.8
08/05 03:20 3.9 79 4.99 0.6 30 37 1016.6 0 12.2 22.9 29.8 77.7 61.2 206.8
08/05 03:10 3.9 79 4.99 0.6 39 44 1016.6 0 12.2 22.9 29.8 77.7 61.2 206.8
08/05 03:00 4 78 4.96 0.5 41 54 1016.7 0 12.2 22.8 29.7 77.3 60.8 205.2
08/05 02:50 3.9 78 4.93 0.4 39 50 1016.8 0 12.1 22.8 29.6 77.1 60.5 204.1
08/05 02:40 3.9 78 4.93 0.4 44 52 1016.8 0 12.1 22.8 29.6 77.1 60.5 204.1
08/05 02:30 3.8 79 4.96 0.5 37 52 1016.9 0 12.2 22.9 29.8 77.5 60.9 205.7
08/05 02:20 3.7 79 4.93 0.4 37 44 1017.1 0 12.1 22.9 29.7 77.3 60.6 204.7
08/05 02:10 3.7 79 4.93 0.4 43 56 1017.1 0 12.1 22.9 29.7 77.3 60.6 204.7
08/05 02:00 3.6 79 4.89 0.3 35 48 1017.2 0 12.0 22.8 29.6 77.0 60.2 203.1
08/05 01:50 3.7 79 4.93 0.4 30 37 1017.1 0 12.1 22.9 29.7 77.3 60.6 204.7
08/05 01:40 3.6 79 4.89 0.4 30 33 1017.3 0 12.0 22.8 29.6 77.0 60.2 203.1
08/05 01:30 3.8 79 4.96 0.5 33 48 1017.2 0 12.2 22.9 29.8 77.5 61.0 205.8
08/05 01:20 3.6 79 4.89 0.3 30 39 1017.4 0 12.0 22.8 29.6 77.0 60.2 203.1
08/05 01:10 3.7 78 4.86 0.2 39 46 1017.7 0 12.0 22.8 29.4 76.6 59.8 201.5
08/05 01:00 3.8 77 4.83 0.1 37 56 1017.7 0 11.9 22.7 29.3 76.2 59.3 199.9
08/05 00:50 3.5 78 4.8 0 41 52 1017.8 0 11.9 22.7 29.3 76.2 59.1 199.3
08/05 00:40 3.6 77 4.77 -0.1 33 41 1017.8 0 11.8 22.7 29.1 75.8 58.7 197.7
08/05 00:20 3.5 77 4.74 -0.2 43 48 1017.7 0 11.7 22.6 29.0 75.5 58.3 196.5
08/05 00:10 3.4 78 4.77 -0.1 43 50 1017.8 0 11.8 22.7 29.2 75.9 58.8 198.2
08/05 00:00 3.3 78 4.74 -0.2 39 61 1017.9 0 11.7 22.7 29.1 75.7 58.5 197.1
07/05 23:50 3 79 4.7 -0.3 35 44 1017.9 0 11.7 22.7 29.1 75.6 58.2 196.0
07/05 23:40 2.9 79 4.67 -0.4 35 44 1017.9 0 11.6 22.7 29.0 75.4 57.9 194.9
07/05 23:30 3 77 4.58 -0.6 43 63 1017.8 0 11.4 22.5 28.6 74.3 56.6 190.5
07/05 23:20 3 77 4.58 -0.7 43 50 1017.8 0 11.4 22.5 28.6 74.3 56.6 190.5
07/05 23:10 2.9 75 4.43 -1.1 37 44 1017.9 0 11.1 22.3 28.0 72.9 54.8 183.9
07/05 23:00 3 74 4.4 -1.2 39 56 1017.8 0 11.0 22.2 27.9 72.4 54.3 182.3
07/05 22:50 3.1 73 4.37 -1.3 39 44 1017.7 0 10.9 22.2 27.7 72.0 53.8 180.7
07/05 22:40 3.1 73 4.37 -1.3 37 46 1017.7 0 10.9 22.2 27.7 72.0 53.8 180.7
07/05 22:30 3 74 4.4 -1.2 30 46 1017.9 0 11.0 22.2 27.9 72.4 54.3 182.3
07/05 22:20 3.1 73 4.37 -1.3 32 39 1017.8 0 10.9 22.2 27.7 72.0 53.8 180.7
07/05 22:10 3.2 73 4.4 -1.2 35 43 1018 0 11.0 22.2 27.8 72.3 54.2 181.8
07/05 22:00 3.2 72 4.34 -1.3 30 57 1018.2 0 10.9 22.1 27.6 71.7 53.4 179.1
07/05 21:50 3.2 73 4.4 -1.2 30 37 1018.3 0 11.0 22.2 27.8 72.3 54.2 181.9
07/05 21:40 3.3 72 4.37 -1.3 33 41 1018.2 0 10.9 22.1 27.7 71.9 53.7 180.3
07/05 21:30 3.4 71 4.34 -1.3 37 56 1018 0 10.9 22.1 27.5 71.5 53.3 178.7
07/05 21:20 3.3 72 4.37 -1.3 35 43 1017.7 0 10.9 22.1 27.7 71.8 53.7 180.2
07/05 21:10 3.5 71 4.37 -1.3 44 54 1017.4 0 10.9 22.1 27.6 71.6 53.5 179.7
07/05 21:00 3.6 71 4.4 -1.2 43 59 1017.2 0 11.0 22.1 27.7 71.8 53.8 180.8
07/05 20:50 3.4 71 4.34 -1.4 41 52 1017.1 0 10.9 22.0 27.5 71.4 53.2 178.5
07/05 20:40 3.5 71 4.37 -1.3 41 54 1017.2 0 10.9 22.0 27.6 71.6 53.5 179.7
07/05 20:30 3.7 70 4.37 -1.3 35 59 1017.3 0 10.9 22.0 27.5 71.4 53.4 179.2
07/05 20:20 3.5 70 4.31 -1.5 33 39 1017.3 0 10.8 22.0 27.3 71.0 52.8 177.0
07/05 20:10 3.7 69 4.3 -1.5 44 50 1017.3 0 10.8 21.9 27.2 70.7 52.5 176.1
07/05 20:00 3.9 68 4.3 -1.5 46 61 1017.2 0 10.8 21.8 27.2 70.5 52.4 175.6
07/05 19:50 3.8 68 4.27 -1.6 44 57 1017.4 0 10.7 21.8 27.1 70.3 52.1 174.5

Last Refresh: 08-May-2026 12:10:14

Bureau of Meteorology